Voorheesville, New York
Current Conditions -  °F | °C
As of 5:51 PM on Friday 28 Nov 2014 (Local Time) from KALB Reporting Station
Few Clouds Few Clouds  
Wind Chill: 15°   Ceiling: Unl
Heat Index: 25°   Visibility: 10mi
Dew Point: 13°   Wind: 10mph
Humidity: 60%   Direction: 280°W
Pressure: 30.21"   Gusts: NA
Location:  42.65°N, 73.93°W
Report Text: KALB 282251Z 28009KT 10SM FEW045 FEW060 M04/M11 A3021 RMK AO2 SLP234 T10391106
Loading
Personal Weather Stations






























Interactive Weather Map New forecast layout! Learn more

10-Day Weather Forecast

Advertisements
Track Severe Weather on mobile